sensor_id;sensor_type;location;lat;lon;timestamp;pressure;altitude;pressure_sealevel;temperature;humidity
83411;BME280;73340;53.132;8.174;2024-03-22T00:01:39;101856.03;;;10.00;86.16
83411;BME280;73340;53.132;8.174;2024-03-22T00:04:04;101779.38;;;9.55;85.93
83411;BME280;73340;53.132;8.174;2024-03-22T00:06:30;101845.44;;;10.09;85.87
83411;BME280;73340;53.132;8.174;2024-03-22T00:08:55;101838.44;;;10.05;86.34
83411;BME280;73340;53.132;8.174;2024-03-22T00:11:21;101841.94;;;10.09;86.53
83411;BME280;73340;53.132;8.174;2024-03-22T00:13:46;101832.25;;;10.06;86.57
83411;BME280;73340;53.132;8.174;2024-03-22T00:16:12;101840.16;;;10.06;86.04
83411;BME280;73340;53.132;8.174;2024-03-22T00:18:37;101828.78;;;10.09;86.37
83411;BME280;73340;53.132;8.174;2024-03-22T00:21:02;101808.63;;;10.03;86.47
83411;BME280;73340;53.132;8.174;2024-03-22T00:23:28;101817.31;;;10.11;85.46
83411;BME280;73340;53.132;8.174;2024-03-22T00:25:55;101820.75;;;10.19;85.35
83411;BME280;73340;53.132;8.174;2024-03-22T00:28:20;101819.03;;;10.15;86.22
83411;BME280;73340;53.132;8.174;2024-03-22T00:30:46;101810.34;;;10.07;85.79
83411;BME280;73340;53.132;8.174;2024-03-22T00:33:11;101814.69;;;10.14;86.33
83411;BME280;73340;53.132;8.174;2024-03-22T00:35:36;101811.25;;;10.08;86.09
83411;BME280;73340;53.132;8.174;2024-03-22T00:38:01;101799.72;;;10.15;86.31
83411;BME280;73340;53.132;8.174;2024-03-22T00:40:27;101803.28;;;10.12;85.87
83411;BME280;73340;53.132;8.174;2024-03-22T00:42:52;101791.00;;;10.13;86.97
83411;BME280;73340;53.132;8.174;2024-03-22T00:45:17;101786.56;;;10.16;86.33
83411;BME280;73340;53.132;8.174;2024-03-22T00:47:43;101790.09;;;10.15;86.06
83411;BME280;73340;53.132;8.174;2024-03-22T00:50:08;101783.91;;;10.16;86.47
83411;BME280;73340;53.132;8.174;2024-03-22T00:52:34;101775.19;;;10.14;86.10
83411;BME280;73340;53.132;8.174;2024-03-22T00:54:59;101773.41;;;10.15;86.31
83411;BME280;73340;53.132;8.174;2024-03-22T00:57:24;101763.84;;;10.09;86.77
83411;BME280;73340;53.132;8.174;2024-03-22T00:59:50;101707.19;;;9.77;86.30
83411;BME280;73340;53.132;8.174;2024-03-22T01:02:15;101769.88;;;10.17;86.17
83411;BME280;73340;53.132;8.174;2024-03-22T01:04:41;101763.66;;;10.24;86.63
83411;BME280;73340;53.132;8.174;2024-03-22T01:07:06;101755.78;;;10.21;86.22
83411;BME280;73340;53.132;8.174;2024-03-22T01:09:31;101754.03;;;10.20;87.16
83411;BME280;73340;53.132;8.174;2024-03-22T01:11:57;101752.28;;;10.21;86.71
83411;BME280;73340;53.132;8.174;2024-03-22T01:14:22;101735.66;;;10.17;87.36
83411;BME280;73340;53.132;8.174;2024-03-22T01:16:47;101735.63;;;10.19;86.66
83411;BME280;73340;53.132;8.174;2024-03-22T01:19:12;101736.53;;;10.16;87.58
83411;BME280;73340;53.132;8.174;2024-03-22T01:21:38;101718.22;;;10.09;87.13
83411;BME280;73340;53.132;8.174;2024-03-22T01:24:03;101721.56;;;10.20;87.33
83411;BME280;73340;53.132;8.174;2024-03-22T01:26:28;101637.06;;;9.77;87.36
83411;BME280;73340;53.132;8.174;2024-03-22T01:28:54;101693.59;;;10.14;87.57
83411;BME280;73340;53.132;8.174;2024-03-22T01:31:19;101695.31;;;10.15;87.17
83411;BME280;73340;53.132;8.174;2024-03-22T01:33:44;101674.31;;;10.12;87.43
83411;BME280;73340;53.132;8.174;2024-03-22T01:36:10;101672.53;;;10.14;87.05
83411;BME280;73340;53.132;8.174;2024-03-22T01:38:35;101683.06;;;10.14;88.01
83411;BME280;73340;53.132;8.174;2024-03-22T01:41:00;101684.72;;;10.20;87.02
83411;BME280;73340;53.132;8.174;2024-03-22T01:43:25;101674.22;;;10.17;88.04
83411;BME280;73340;53.132;8.174;2024-03-22T01:45:51;101690.91;;;10.17;87.36
83411;BME280;73340;53.132;8.174;2024-03-22T01:48:16;101683.81;;;10.22;87.87
83411;BME280;73340;53.132;8.174;2024-03-22T01:50:42;101642.84;;;10.02;87.87
83411;BME280;73340;53.132;8.174;2024-03-22T01:53:08;101681.19;;;10.22;88.45
83411;BME280;73340;53.132;8.174;2024-03-22T01:55:34;101675.91;;;10.22;88.45
83411;BME280;73340;53.132;8.174;2024-03-22T01:57:59;101669.69;;;10.28;88.09
83411;BME280;73340;53.132;8.174;2024-03-22T02:00:25;101662.56;;;10.35;87.89
83411;BME280;73340;53.132;8.174;2024-03-22T02:02:50;101660.94;;;10.27;87.79
83411;BME280;73340;53.132;8.174;2024-03-22T02:05:16;101639.75;;;10.33;87.85
83411;BME280;73340;53.132;8.174;2024-03-22T02:07:47;101647.66;;;10.33;88.41
83411;BME280;73340;53.132;8.174;2024-03-22T02:10:13;101659.00;;;10.37;88.22
83411;BME280;73340;53.132;8.174;2024-03-22T02:12:40;101650.22;;;10.37;88.13
83411;BME280;73340;53.132;8.174;2024-03-22T02:15:06;101645.88;;;10.36;87.66
83411;BME280;73340;53.132;8.174;2024-03-22T02:17:32;101650.22;;;10.40;88.22
83411;BME280;73340;53.132;8.174;2024-03-22T02:19:58;101626.53;;;10.37;87.80
83411;BME280;73340;53.132;8.174;2024-03-22T02:22:24;101632.66;;;10.39;88.38
83411;BME280;73340;53.132;8.174;2024-03-22T02:24:49;101628.22;;;10.42;87.78
83411;BME280;73340;53.132;8.174;2024-03-22T02:27:14;101573.38;;;10.13;87.87
83411;BME280;73340;53.132;8.174;2024-03-22T02:29:39;101610.72;;;10.40;88.95
83411;BME280;73340;53.132;8.174;2024-03-22T02:32:05;101612.38;;;10.44;89.05
83411;BME280;73340;53.132;8.174;2024-03-22T02:34:31;101603.56;;;10.46;88.29
83411;BME280;73340;53.132;8.174;2024-03-22T02:36:56;101599.22;;;10.44;88.11
83411;BME280;73340;53.132;8.174;2024-03-22T02:39:22;101576.66;;;10.29;89.08
83411;BME280;73340;53.132;8.174;2024-03-22T02:41:47;101579.97;;;10.40;89.07
83411;BME280;73340;53.132;8.174;2024-03-22T02:44:12;101586.00;;;10.45;88.01
83411;BME280;73340;53.132;8.174;2024-03-22T02:46:37;101573.59;;;10.52;88.13
83411;BME280;73340;53.132;8.174;2024-03-22T02:49:03;101576.28;;;10.49;89.08
83411;BME280;73340;53.132;8.174;2024-03-22T02:51:28;101570.13;;;10.51;89.16
83411;BME280;73340;53.132;8.174;2024-03-22T02:53:53;101566.63;;;10.51;89.44
83411;BME280;73340;53.132;8.174;2024-03-22T02:56:18;101503.94;;;10.20;88.76
83411;BME280;73340;53.132;8.174;2024-03-22T02:58:44;101521.19;;;10.37;89.16
83411;BME280;73340;53.132;8.174;2024-03-22T03:01:09;101552.44;;;10.58;89.25
83411;BME280;73340;53.132;8.174;2024-03-22T03:03:34;101549.88;;;10.55;89.86
83411;BME280;73340;53.132;8.174;2024-03-22T03:06:00;101547.22;;;10.53;89.32
83411;BME280;73340;53.132;8.174;2024-03-22T03:08:25;101552.47;;;10.56;89.62
83411;BME280;73340;53.132;8.174;2024-03-22T03:10:50;101550.72;;;10.55;89.85
83411;BME280;73340;53.132;8.174;2024-03-22T03:13:15;101549.75;;;10.61;89.99
83411;BME280;73340;53.132;8.174;2024-03-22T03:15:41;101547.81;;;10.70;89.44
83411;BME280;73340;53.132;8.174;2024-03-22T03:18:06;101547.13;;;10.61;90.04
83411;BME280;73340;53.132;8.174;2024-03-22T03:20:31;101540.06;;;10.63;89.29
83411;BME280;73340;53.132;8.174;2024-03-22T03:22:57;101535.59;;;10.65;89.74
83411;BME280;73340;53.132;8.174;2024-03-22T03:25:25;101535.59;;;10.66;89.28
83411;BME280;73340;53.132;8.174;2024-03-22T03:27:50;101533.75;;;10.70;89.33
83411;BME280;73340;53.132;8.174;2024-03-22T03:30:15;101530.31;;;10.68;89.89
83411;BME280;73340;53.132;8.174;2024-03-22T03:32:40;101511.94;;;10.63;89.96
83411;BME280;73340;53.132;8.174;2024-03-22T03:35:06;101472.97;;;10.36;89.55
83411;BME280;73340;53.132;8.174;2024-03-22T03:37:31;101510.03;;;10.71;90.61
83411;BME280;73340;53.132;8.174;2024-03-22T03:39:57;101516.09;;;10.75;90.47
83411;BME280;73340;53.132;8.174;2024-03-22T03:42:22;101504.84;;;10.67;90.17
83411;BME280;73340;53.132;8.174;2024-03-22T03:44:47;101493.38;;;10.69;90.13
83411;BME280;73340;53.132;8.174;2024-03-22T03:47:13;101502.03;;;10.76;90.62
83411;BME280;73340;53.132;8.174;2024-03-22T03:49:38;101493.31;;;10.72;89.71
83411;BME280;73340;53.132;8.174;2024-03-22T03:52:03;101479.34;;;10.69;90.59
83411;BME280;73340;53.132;8.174;2024-03-22T03:54:29;101482.69;;;10.77;90.18
83411;BME280;73340;53.132;8.174;2024-03-22T03:56:54;101470.38;;;10.77;90.19
83411;BME280;73340;53.132;8.174;2024-03-22T03:59:19;101473.03;;;10.77;90.68
83411;BME280;73340;53.132;8.174;2024-03-22T04:01:45;101466.81;;;10.80;91.18
83411;BME280;73340;53.132;8.174;2024-03-22T04:04:10;101471.25;;;10.78;90.89
83411;BME280;73340;53.132;8.174;2024-03-22T04:06:35;101468.41;;;10.87;90.91
83411;BME280;73340;53.132;8.174;2024-03-22T04:09:00;101465.00;;;10.82;91.30
83411;BME280;73340;53.132;8.174;2024-03-22T04:11:27;101463.28;;;10.81;90.79
83411;BME280;73340;53.132;8.174;2024-03-22T04:13:53;101418.91;;;10.60;90.64
83411;BME280;73340;53.132;8.174;2024-03-22T04:16:18;101431.84;;;10.72;90.91
83411;BME280;73340;53.132;8.174;2024-03-22T04:18:44;101457.00;;;10.86;90.54
83411;BME280;73340;53.132;8.174;2024-03-22T04:21:09;101463.19;;;10.85;91.49
83411;BME280;73340;53.132;8.174;2024-03-22T04:23:34;101463.16;;;10.87;91.69
83411;BME280;73340;53.132;8.174;2024-03-22T04:26:00;101458.78;;;10.86;91.32
83411;BME280;73340;53.132;8.174;2024-03-22T04:28:27;101419.72;;;10.63;91.02
83411;BME280;73340;53.132;8.174;2024-03-22T04:31:06;101469.97;;;10.97;91.29
83411;BME280;73340;53.132;8.174;2024-03-22T04:33:32;101464.63;;;11.00;91.40
83411;BME280;73340;53.132;8.174;2024-03-22T04:35:58;101471.66;;;11.01;90.96
83411;BME280;73340;53.132;8.174;2024-03-22T04:38:25;101420.44;;;10.73;90.69
83411;BME280;73340;53.132;8.174;2024-03-22T04:40:50;101430.72;;;10.83;90.83
83411;BME280;73340;53.132;8.174;2024-03-22T04:43:16;101460.34;;;10.96;91.64
83411;BME280;73340;53.132;8.174;2024-03-22T04:45:45;101447.22;;;10.91;91.84
83411;BME280;73340;53.132;8.174;2024-03-22T04:48:13;101439.22;;;10.97;91.64
83411;BME280;73340;53.132;8.174;2024-03-22T04:50:39;101388.13;;;10.63;91.08
83411;BME280;73340;53.132;8.174;2024-03-22T04:53:04;101438.25;;;11.00;91.36
83411;BME280;73340;53.132;8.174;2024-03-22T04:55:31;101446.28;;;10.95;91.36
83411;BME280;73340;53.132;8.174;2024-03-22T04:57:56;101450.53;;;11.02;91.75
83411;BME280;73340;53.132;8.174;2024-03-22T05:00:21;101433.78;;;11.03;91.35
83411;BME280;73340;53.132;8.174;2024-03-22T05:02:47;101450.59;;;10.99;91.50
83411;BME280;73340;53.132;8.174;2024-03-22T05:05:12;101436.31;;;11.09;91.39
83411;BME280;73340;53.132;8.174;2024-03-22T05:07:38;101412.19;;;10.88;91.27
83411;BME280;73340;53.132;8.174;2024-03-22T05:10:04;101439.16;;;11.00;91.65
83411;BME280;73340;53.132;8.174;2024-03-22T05:12:29;101427.69;;;11.03;91.92
83411;BME280;73340;53.132;8.174;2024-03-22T05:14:55;101393.81;;;10.83;91.41
83411;BME280;73340;53.132;8.174;2024-03-22T05:17:20;101431.28;;;10.99;91.80
83411;BME280;73340;53.132;8.174;2024-03-22T05:19:45;101420.72;;;10.99;91.75
83411;BME280;73340;53.132;8.174;2024-03-22T05:22:10;101417.97;;;11.03;92.03
83411;BME280;73340;53.132;8.174;2024-03-22T05:24:36;101415.31;;;11.05;91.57
83411;BME280;73340;53.132;8.174;2024-03-22T05:27:01;101415.31;;;11.05;92.41
83411;BME280;73340;53.132;8.174;2024-03-22T05:29:26;101391.84;;;10.94;91.88
83411;BME280;73340;53.132;8.174;2024-03-22T05:31:52;101418.72;;;11.10;92.28
83411;BME280;73340;53.132;8.174;2024-03-22T05:34:18;101406.34;;;11.13;92.36
83411;BME280;73340;53.132;8.174;2024-03-22T05:36:44;101400.22;;;11.13;91.61
83411;BME280;73340;53.132;8.174;2024-03-22T05:39:10;101396.53;;;11.18;91.88
83411;BME280;73340;53.132;8.174;2024-03-22T05:41:38;101392.09;;;11.20;91.48
83411;BME280;73340;53.132;8.174;2024-03-22T05:44:04;101366.19;;;11.02;91.96
83411;BME280;73340;53.132;8.174;2024-03-22T05:46:30;101381.59;;;11.19;91.22
83411;BME280;73340;53.132;8.174;2024-03-22T05:48:56;101365.78;;;11.19;91.93
83411;BME280;73340;53.132;8.174;2024-03-22T05:51:22;101379.84;;;11.18;92.12
83411;BME280;73340;53.132;8.174;2024-03-22T05:53:47;101374.38;;;11.27;91.64
83411;BME280;73340;53.132;8.174;2024-03-22T05:56:12;101381.47;;;11.23;91.60
83411;BME280;73340;53.132;8.174;2024-03-22T05:58:38;101375.22;;;11.29;91.48
83411;BME280;73340;53.132;8.174;2024-03-22T06:01:04;101376.03;;;11.31;91.74
83411;BME280;73340;53.132;8.174;2024-03-22T06:03:29;101366.59;;;11.22;92.02
83411;BME280;73340;53.132;8.174;2024-03-22T06:05:55;101365.53;;;11.28;92.37
83411;BME280;73340;53.132;8.174;2024-03-22T06:08:24;101377.88;;;11.27;91.86
83411;BME280;73340;53.132;8.174;2024-03-22T06:10:50;101370.81;;;11.28;92.13
83411;BME280;73340;53.132;8.174;2024-03-22T06:13:15;101354.41;;;11.17;92.21
83411;BME280;73340;53.132;8.174;2024-03-22T06:15:43;101381.31;;;11.31;92.33
83411;BME280;73340;53.132;8.174;2024-03-22T06:18:10;101330.13;;;11.04;92.87
83411;BME280;73340;53.132;8.174;2024-03-22T06:20:36;101370.78;;;11.31;92.42
83411;BME280;73340;53.132;8.174;2024-03-22T06:23:01;101369.09;;;11.27;93.26
83411;BME280;73340;53.132;8.174;2024-03-22T06:25:26;101362.91;;;11.28;92.58
83411;BME280;73340;53.132;8.174;2024-03-22T06:27:52;101369.97;;;11.27;93.00
83411;BME280;73340;53.132;8.174;2024-03-22T06:30:17;101362.09;;;11.26;92.63
83411;BME280;73340;53.132;8.174;2024-03-22T06:32:42;101369.09;;;11.27;93.37
83411;BME280;73340;53.132;8.174;2024-03-22T06:35:08;101379.56;;;11.30;92.88
83411;BME280;73340;53.132;8.174;2024-03-22T06:37:33;101383.16;;;11.27;92.81
83411;BME280;73340;53.132;8.174;2024-03-22T06:39:58;101369.19;;;11.24;93.31
83411;BME280;73340;53.132;8.174;2024-03-22T06:42:23;101364.81;;;11.21;93.22
83411;BME280;73340;53.132;8.174;2024-03-22T06:44:49;101366.41;;;11.28;93.26
83411;BME280;73340;53.132;8.174;2024-03-22T06:47:14;101359.38;;;11.29;93.15
83411;BME280;73340;53.132;8.174;2024-03-22T06:49:39;101350.53;;;11.31;92.92
83411;BME280;73340;53.132;8.174;2024-03-22T06:52:05;101334.78;;;11.28;93.44
83411;BME280;73340;53.132;8.174;2024-03-22T06:54:31;101344.44;;;11.28;94.26
83411;BME280;73340;53.132;8.174;2024-03-22T06:56:56;101341.84;;;11.26;94.40
83411;BME280;73340;53.132;8.174;2024-03-22T06:59:21;101344.56;;;11.23;94.35
83411;BME280;73340;53.132;8.174;2024-03-22T07:01:47;101349.72;;;11.28;94.80
83411;BME280;73340;53.132;8.174;2024-03-22T07:04:12;101342.06;;;11.19;95.65
83411;BME280;73340;53.132;8.174;2024-03-22T07:06:37;101339.34;;;11.22;95.74
83411;BME280;73340;53.132;8.174;2024-03-22T07:09:02;101335.03;;;11.18;95.16
83411;BME280;73340;53.132;8.174;2024-03-22T07:11:28;101334.06;;;11.22;95.60
83411;BME280;73340;53.132;8.174;2024-03-22T07:13:53;101348.22;;;11.18;96.09
83411;BME280;73340;53.132;8.174;2024-03-22T07:16:18;101342.97;;;11.16;95.93
83411;BME280;73340;53.132;8.174;2024-03-22T07:18:44;101343.78;;;11.20;96.00
83411;BME280;73340;53.132;8.174;2024-03-22T07:21:09;101335.06;;;11.16;96.34
83411;BME280;73340;53.132;8.174;2024-03-22T07:23:35;101288.31;;;10.89;95.71
83411;BME280;73340;53.132;8.174;2024-03-22T07:26:00;101340.47;;;11.12;96.26
83411;BME280;73340;53.132;8.174;2024-03-22T07:28:25;101337.81;;;11.12;96.52
83411;BME280;73340;53.132;8.174;2024-03-22T07:30:50;101340.47;;;11.12;96.04
83411;BME280;73340;53.132;8.174;2024-03-22T07:33:16;101339.53;;;11.14;96.69
83411;BME280;73340;53.132;8.174;2024-03-22T07:35:42;101339.56;;;11.13;96.67
83411;BME280;73340;53.132;8.174;2024-03-22T07:38:08;101349.22;;;11.14;97.01
83411;BME280;73340;53.132;8.174;2024-03-22T07:40:33;101334.31;;;11.13;97.28
83411;BME280;73340;53.132;8.174;2024-03-22T07:42:58;101339.56;;;11.13;96.62
83411;BME280;73340;53.132;8.174;2024-03-22T07:45:24;101335.16;;;11.13;96.92
83411;BME280;73340;53.132;8.174;2024-03-22T07:47:49;101326.47;;;11.08;96.58
83411;BME280;73340;53.132;8.174;2024-03-22T07:50:15;101327.28;;;11.12;96.67
83411;BME280;73340;53.132;8.174;2024-03-22T07:52:40;101321.16;;;11.10;96.51
83411;BME280;73340;53.132;8.174;2024-03-22T07:55:06;101329.03;;;11.13;96.50
83411;BME280;73340;53.132;8.174;2024-03-22T07:57:31;101319.28;;;11.15;96.75
83411;BME280;73340;53.132;8.174;2024-03-22T07:59:57;101316.66;;;11.15;95.91
83411;BME280;73340;53.132;8.174;2024-03-22T08:02:23;101311.41;;;11.13;96.27
83411;BME280;73340;53.132;8.174;2024-03-22T08:04:49;101309.75;;;11.11;95.91
83411;BME280;73340;53.132;8.174;2024-03-22T08:07:14;101308.00;;;11.10;96.44
83411;BME280;73340;53.132;8.174;2024-03-22T08:09:40;101310.63;;;11.10;95.53
83411;BME280;73340;53.132;8.174;2024-03-22T08:12:05;101307.94;;;11.11;95.27
83411;BME280;73340;53.132;8.174;2024-03-22T08:14:31;101316.72;;;11.12;95.71
83411;BME280;73340;53.132;8.174;2024-03-22T08:16:57;101323.72;;;11.14;95.53
83411;BME280;73340;53.132;8.174;2024-03-22T08:19:22;101309.66;;;11.14;94.67
83411;BME280;73340;53.132;8.174;2024-03-22T08:21:48;101315.00;;;11.11;94.63
83411;BME280;73340;53.132;8.174;2024-03-22T08:24:13;101314.19;;;11.09;94.29
83411;BME280;73340;53.132;8.174;2024-03-22T08:26:38;101311.38;;;11.15;94.07
83411;BME280;73340;53.132;8.174;2024-03-22T08:29:03;101323.50;;;11.22;93.50
83411;BME280;73340;53.132;8.174;2024-03-22T08:31:29;101314.84;;;11.17;93.05
83411;BME280;73340;53.132;8.174;2024-03-22T08:33:54;101318.31;;;11.19;92.85
83411;BME280;73340;53.132;8.174;2024-03-22T08:36:21;101308.66;;;11.19;92.94
83411;BME280;73340;53.132;8.174;2024-03-22T08:38:47;101305.31;;;11.13;92.87
83411;BME280;73340;53.132;8.174;2024-03-22T08:41:12;101309.56;;;11.17;93.58
83411;BME280;73340;53.132;8.174;2024-03-22T08:43:37;101305.97;;;11.21;92.96
83411;BME280;73340;53.132;8.174;2024-03-22T08:46:03;101297.06;;;11.25;92.66
83411;BME280;73340;53.132;8.174;2024-03-22T08:48:28;101297.22;;;11.19;92.38
83411;BME280;73340;53.132;8.174;2024-03-22T08:50:54;101305.03;;;11.23;92.83
83411;BME280;73340;53.132;8.174;2024-03-22T08:53:19;101295.22;;;11.28;92.26
83411;BME280;73340;53.132;8.174;2024-03-22T08:55:48;101304.19;;;11.21;92.05
83411;BME280;73340;53.132;8.174;2024-03-22T08:58:16;101289.38;;;11.17;92.50
83411;BME280;73340;53.132;8.174;2024-03-22T09:00:43;101290.16;;;11.21;92.34
83411;BME280;73340;53.132;8.174;2024-03-22T09:03:08;101303.50;;;11.13;92.65
83411;BME280;73340;53.132;8.174;2024-03-22T09:05:34;101305.34;;;11.10;93.22
83411;BME280;73340;53.132;8.174;2024-03-22T09:07:59;101295.69;;;11.10;93.30
83411;BME280;73340;53.132;8.174;2024-03-22T09:10:26;101297.59;;;11.04;93.47
83411;BME280;73340;53.132;8.174;2024-03-22T09:12:52;101301.19;;;11.00;93.25
83411;BME280;73340;53.132;8.174;2024-03-22T09:15:17;101283.66;;;10.99;93.84
83411;BME280;73340;53.132;8.174;2024-03-22T09:17:42;101268.06;;;10.90;94.25
83411;BME280;73340;53.132;8.174;2024-03-22T09:20:08;101266.44;;;10.86;94.44
83411;BME280;73340;53.132;8.174;2024-03-22T09:22:33;101295.94;;;11.00;95.29
83411;BME280;73340;53.132;8.174;2024-03-22T09:24:59;101300.41;;;10.96;95.13
83411;BME280;73340;53.132;8.174;2024-03-22T09:27:24;101297.81;;;10.95;95.97
83411;BME280;73340;53.132;8.174;2024-03-22T09:29:50;101283.00;;;10.91;95.69
83411;BME280;73340;53.132;8.174;2024-03-22T09:32:15;101290.81;;;10.94;95.97
83411;BME280;73340;53.132;8.174;2024-03-22T09:34:40;101294.34;;;10.94;96.08
83411;BME280;73340;53.132;8.174;2024-03-22T09:37:07;101290.66;;;11.00;96.57
83411;BME280;73340;53.132;8.174;2024-03-22T09:39:33;101295.09;;;10.99;95.62
83411;BME280;73340;53.132;8.174;2024-03-22T09:41:58;101288.03;;;11.00;96.09
83411;BME280;73340;53.132;8.174;2024-03-22T09:44:27;101283.06;;;10.88;95.78
83411;BME280;73340;53.132;8.174;2024-03-22T09:46:52;101287.34;;;10.92;95.84
83411;BME280;73340;53.132;8.174;2024-03-22T09:49:18;101281.03;;;10.99;96.66
83411;BME280;73340;53.132;8.174;2024-03-22T09:51:43;101285.47;;;10.97;96.01
83411;BME280;73340;53.132;8.174;2024-03-22T09:54:09;101289.03;;;10.96;96.94
83411;BME280;73340;53.132;8.174;2024-03-22T09:56:38;101276.47;;;11.05;96.86
83411;BME280;73340;53.132;8.174;2024-03-22T09:59:03;101286.38;;;10.96;97.23
83411;BME280;73340;53.132;8.174;2024-03-22T10:01:29;101269.22;;;10.78;96.73
83411;BME280;73340;53.132;8.174;2024-03-22T10:03:55;101273.22;;;10.96;97.44
83411;BME280;73340;53.132;8.174;2024-03-22T10:06:20;101288.25;;;10.91;96.47
83411;BME280;73340;53.132;8.174;2024-03-22T10:08:46;101275.13;;;10.89;97.40
83411;BME280;73340;53.132;8.174;2024-03-22T10:11:11;101282.13;;;10.90;97.27
83411;BME280;73340;53.132;8.174;2024-03-22T10:13:37;101278.69;;;10.87;97.65
83411;BME280;73340;53.132;8.174;2024-03-22T10:16:02;101281.25;;;10.90;96.97
83411;BME280;73340;53.132;8.174;2024-03-22T10:18:28;101284.59;;;10.96;96.88
83411;BME280;73340;53.132;8.174;2024-03-22T10:21:03;101285.47;;;10.97;97.10
83411;BME280;73340;53.132;8.174;2024-03-22T10:23:30;101285.47;;;10.97;96.57
83411;BME280;73340;53.132;8.174;2024-03-22T10:25:59;101274.94;;;10.97;97.28
83411;BME280;73340;53.132;8.174;2024-03-22T10:28:25;101284.53;;;10.99;97.08
83411;BME280;73340;53.132;8.174;2024-03-22T10:30:51;101280.94;;;11.02;96.79
83411;BME280;73340;53.132;8.174;2024-03-22T10:33:19;101288.16;;;10.95;97.50
83411;BME280;73340;53.132;8.174;2024-03-22T10:35:46;101280.13;;;11.00;97.49
83411;BME280;73340;53.132;8.174;2024-03-22T10:38:16;101290.75;;;10.97;96.71
83411;BME280;73340;53.132;8.174;2024-03-22T10:40:44;101268.03;;;10.93;96.73
83411;BME280;73340;53.132;8.174;2024-03-22T10:43:11;101278.47;;;10.96;97.36
83411;BME280;73340;53.132;8.174;2024-03-22T10:45:38;101275.81;;;10.97;96.84
83411;BME280;73340;53.132;8.174;2024-03-22T10:48:11;101270.63;;;10.94;97.35
83411;BME280;73340;53.132;8.174;2024-03-22T10:50:40;101237.56;;;10.80;96.88
83411;BME280;73340;53.132;8.174;2024-03-22T10:53:11;101274.13;;;10.93;98.04
83411;BME280;73340;53.132;8.174;2024-03-22T10:55:42;101276.59;;;11.01;97.13
83411;BME280;73340;53.132;8.174;2024-03-22T10:58:17;101275.59;;;11.05;97.09
83411;BME280;73340;53.132;8.174;2024-03-22T11:00:44;101277.47;;;11.00;97.05
83411;BME280;73340;53.132;8.174;2024-03-22T11:03:10;101272.09;;;11.06;96.97
83411;BME280;73340;53.132;8.174;2024-03-22T11:05:45;101271.28;;;11.02;97.25
83411;BME280;73340;53.132;8.174;2024-03-22T11:08:10;101266.94;;;11.00;97.53
83411;BME280;73340;53.132;8.174;2024-03-22T11:10:37;101214.19;;;10.68;97.69
83411;BME280;73340;53.132;8.174;2024-03-22T11:13:03;101211.47;;;10.71;97.51
83411;BME280;73340;53.132;8.174;2024-03-22T11:15:29;101245.19;;;10.92;97.22
83411;BME280;73340;53.132;8.174;2024-03-22T11:17:55;101228.63;;;10.87;97.56
83411;BME280;73340;53.132;8.174;2024-03-22T11:20:20;101178.50;;;10.55;97.16
83411;BME280;73340;53.132;8.174;2024-03-22T11:22:46;101231.00;;;10.97;96.91
83411;BME280;73340;53.132;8.174;2024-03-22T11:25:11;101246.59;;;11.05;96.85
83411;BME280;73340;53.132;8.174;2024-03-22T11:27:37;101241.38;;;11.03;96.94
83411;BME280;73340;53.132;8.174;2024-03-22T11:30:02;101256.31;;;11.04;97.27
83411;BME280;73340;53.132;8.174;2024-03-22T11:32:28;101247.69;;;10.98;97.62
83411;BME280;73340;53.132;8.174;2024-03-22T11:34:54;101237.94;;;11.00;97.61
83411;BME280;73340;53.132;8.174;2024-03-22T11:37:19;101244.81;;;11.07;97.67
83411;BME280;73340;53.132;8.174;2024-03-22T11:39:44;101193.63;;;10.82;97.74
83411;BME280;73340;53.132;8.174;2024-03-22T11:42:10;101244.66;;;11.13;97.42
83411;BME280;73340;53.132;8.174;2024-03-22T11:44:37;101223.31;;;11.22;97.14
83411;BME280;73340;53.132;8.174;2024-03-22T11:47:04;101235.97;;;11.09;97.43
83411;BME280;73340;53.132;8.174;2024-03-22T11:49:29;101227.00;;;11.15;97.62
83411;BME280;73340;53.132;8.174;2024-03-22T11:51:58;101241.78;;;11.22;97.83
83411;BME280;73340;53.132;8.174;2024-03-22T11:54:23;101225.72;;;11.31;97.62
83411;BME280;73340;53.132;8.174;2024-03-22T11:56:49;101229.16;;;11.33;97.22
83411;BME280;73340;53.132;8.174;2024-03-22T11:59:15;101232.63;;;11.35;97.63
83411;BME280;73340;53.132;8.174;2024-03-22T12:01:44;101225.59;;;11.35;97.65
83411;BME280;73340;53.132;8.174;2024-03-22T12:04:09;101230.13;;;11.30;96.61
83411;BME280;73340;53.132;8.174;2024-03-22T12:06:41;101215.53;;;11.49;97.50
83411;BME280;73340;53.132;8.174;2024-03-22T12:09:07;101218.25;;;11.46;96.55
83411;BME280;73340;53.132;8.174;2024-03-22T12:11:33;101218.94;;;11.53;96.21
83411;BME280;73340;53.132;8.174;2024-03-22T12:13:58;101222.84;;;11.72;95.85
83411;BME280;73340;53.132;8.174;2024-03-22T12:16:24;101204.69;;;11.60;95.39
83411;BME280;73340;53.132;8.174;2024-03-22T12:18:49;101199.47;;;11.58;95.26
83411;BME280;73340;53.132;8.174;2024-03-22T12:21:14;101224.63;;;11.72;95.34
83411;BME280;73340;53.132;8.174;2024-03-22T12:23:40;101216.66;;;11.73;95.12
83411;BME280;73340;53.132;8.174;2024-03-22T12:26:05;101216.66;;;11.73;95.20
83411;BME280;73340;53.132;8.174;2024-03-22T12:28:31;101151.44;;;11.15;94.72
83411;BME280;73340;53.132;8.174;2024-03-22T12:30:56;101209.19;;;11.56;95.60
83411;BME280;73340;53.132;8.174;2024-03-22T12:33:21;101212.16;;;11.44;96.05
83411;BME280;73340;53.132;8.174;2024-03-22T12:35:47;101211.09;;;11.51;96.43
83411;BME280;73340;53.132;8.174;2024-03-22T12:38:13;101212.09;;;11.47;96.66
83411;BME280;73340;53.132;8.174;2024-03-22T12:40:39;101205.06;;;11.46;96.54
83411;BME280;73340;53.132;8.174;2024-03-22T12:43:05;101140.84;;;11.17;96.55